createdAt,value
2022-12-22T00:00:32.920Z,100092.63
2022-12-22T00:03:27.170Z,100093.97
2022-12-22T00:06:17.774Z,100086.12
2022-12-22T00:09:08.356Z,100095.97
2022-12-22T00:11:58.717Z,100090.32
2022-12-22T00:14:48.991Z,100070.40
2022-12-22T00:17:47.066Z,100076.17
2022-12-22T00:20:39.128Z,100081.13
2022-12-22T00:23:30.488Z,100074.05
2022-12-22T00:26:21.087Z,100064.66
2022-12-22T00:29:11.850Z,100055.38
2022-12-22T00:32:02.228Z,100058.61
2022-12-22T00:34:58.995Z,100056.90
2022-12-22T00:37:52.977Z,100051.81
2022-12-22T00:40:46.620Z,100055.09
2022-12-22T00:43:37.081Z,100052.78
2022-12-22T00:46:28.892Z,100050.56
2022-12-22T00:49:19.404Z,100055.27
2022-12-22T00:52:09.800Z,100061.20
2022-12-22T00:54:59.983Z,100054.13
2022-12-22T00:57:50.798Z,100055.46
2022-12-22T01:00:41.085Z,100052.09
2022-12-22T01:03:31.746Z,100045.30
2022-12-22T01:06:22.992Z,100033.55
2022-12-22T01:09:13.378Z,100025.97
2022-12-22T01:12:03.710Z,100020.05
2022-12-22T01:14:54.776Z,100018.70
2022-12-22T01:17:45.977Z,100020.14
2022-12-22T01:20:36.487Z,100015.34
2022-12-22T01:23:29.512Z,100008.36
2022-12-22T01:26:20.586Z,100014.28
2022-12-22T01:29:11.275Z,100003.56
2022-12-22T01:32:05.148Z,99997.41
2022-12-22T01:34:58.776Z,99995.33
2022-12-22T01:37:51.832Z,99999.91
2022-12-22T01:40:43.881Z,100004.12
2022-12-22T01:43:46.754Z,100004.30
2022-12-22T01:46:47.139Z,100007.16
2022-12-22T01:49:49.722Z,100012.75
2022-12-22T01:52:43.825Z,100003.55
2022-12-22T01:55:36.753Z,100003.64
2022-12-22T01:58:35.605Z,99999.49
2022-12-22T02:01:26.329Z,100002.08
2022-12-22T02:04:16.814Z,100000.17
2022-12-22T02:07:07.662Z,100003.03
2022-12-22T02:10:31.848Z,99997.17
2022-12-22T02:13:50.036Z,99992.59
2022-12-22T02:16:56.445Z,99990.79
2022-12-22T02:20:11.957Z,99982.44
2022-12-22T02:23:30.793Z,99985.70
2022-12-22T02:26:50.547Z,99983.99
2022-12-22T02:29:45.257Z,99986.67
2022-12-22T02:32:37.020Z,99988.19
2022-12-22T02:35:33.232Z,100001.50
2022-12-22T02:38:46.426Z,99995.07
2022-12-22T02:44:53.898Z,99998.84
2022-12-22T02:48:03.494Z,99995.59
2022-12-22T02:51:03.303Z,100000.06
2022-12-22T02:53:53.951Z,100005.69
2022-12-22T02:56:44.710Z,100008.34
2022-12-22T02:59:35.035Z,100011.89
2022-12-22T03:02:25.047Z,100006.45
2022-12-22T03:05:15.645Z,99995.94
2022-12-22T03:08:08.592Z,99989.91
2022-12-22T03:10:58.156Z,99993.66
2022-12-22T03:13:48.684Z,99994.34
2022-12-22T03:16:38.802Z,99996.27
2022-12-22T03:19:29.221Z,99996.48
2022-12-22T03:22:19.449Z,100000.80
2022-12-22T03:25:09.777Z,99990.45
2022-12-22T03:27:42.158Z,99989.61
2022-12-22T03:30:14.726Z,100002.33
2022-12-22T03:32:47.153Z,99999.09
2022-12-22T03:35:19.514Z,99996.78
2022-12-22T03:37:52.146Z,99998.31
2022-12-22T03:40:25.092Z,99988.02
2022-12-22T03:43:15.464Z,99988.02
2022-12-22T03:46:06.208Z,99972.59
2022-12-22T03:48:38.737Z,99978.81
2022-12-22T03:51:12.783Z,99984.37
2022-12-22T03:53:45.436Z,99975.36
2022-12-22T03:56:17.992Z,99977.20
2022-12-22T03:58:51.035Z,99974.90
2022-12-22T04:01:23.509Z,99978.05
2022-12-22T04:03:56.124Z,99975.55
2022-12-22T04:06:28.633Z,99959.88
2022-12-22T04:09:01.448Z,99952.59
2022-12-22T04:11:51.618Z,99951.62
2022-12-22T04:14:28.089Z,99950.70
2022-12-22T04:16:58.570Z,99946.27
2022-12-22T04:19:31.473Z,99949.27
2022-12-22T04:25:00.365Z,99955.28
2022-12-22T04:27:33.170Z,99950.89
2022-12-22T04:30:07.642Z,99951.17
2022-12-22T04:32:40.524Z,99953.01
2022-12-22T04:35:13.095Z,99951.17
2022-12-22T04:37:45.676Z,99955.78
2022-12-22T04:40:18.416Z,99957.48
2022-12-22T04:42:51.003Z,99964.47
2022-12-22T04:45:23.933Z,99969.63
2022-12-22T04:47:56.360Z,99962.56
2022-12-22T04:50:28.859Z,99957.20
2022-12-22T04:53:01.618Z,99951.26
2022-12-22T04:55:34.108Z,99947.33
2022-12-22T04:58:07.099Z,99946.40
2022-12-22T05:00:39.756Z,99945.25
2022-12-22T05:03:12.371Z,99947.05
2022-12-22T05:05:44.902Z,99942.94
2022-12-22T05:08:17.377Z,99936.16
2022-12-22T05:10:50.196Z,99935.19
2022-12-22T05:13:22.609Z,99938.45
2022-12-22T05:15:55.085Z,99955.46
2022-12-22T05:18:27.481Z,99960.45
2022-12-22T05:21:00.435Z,99951.86
2022-12-22T05:23:33.392Z,99954.34
2022-12-22T05:26:06.150Z,99956.34
2022-12-22T05:28:39.352Z,99954.53
2022-12-22T05:31:18.178Z,99958.46
2022-12-22T05:33:51.217Z,99959.42
2022-12-22T05:36:30.710Z,99974.62
2022-12-22T05:39:07.546Z,99993.84
2022-12-22T05:41:45.223Z,99994.31
2022-12-22T05:44:17.851Z,99980.91
2022-12-22T05:46:55.188Z,99979.75
2022-12-22T05:49:27.638Z,99977.85
2022-12-22T05:52:00.090Z,99963.41
2022-12-22T05:54:33.321Z,99956.43
2022-12-22T05:57:05.786Z,99972.88
2022-12-22T05:59:38.273Z,99977.30
2022-12-22T06:02:11.059Z,99973.56
2022-12-22T06:04:44.047Z,99973.76
2022-12-22T06:07:17.118Z,99972.41
2022-12-22T06:09:49.625Z,99983.41
2022-12-22T06:12:22.147Z,99969.64
2022-12-22T06:14:55.550Z,99971.77
2022-12-22T06:17:28.011Z,99966.00
2022-12-22T06:20:01.534Z,99977.13
2022-12-22T06:22:35.400Z,99985.91
2022-12-22T06:25:10.922Z,99991.58
2022-12-22T06:27:42.684Z,99991.21
2022-12-22T06:30:16.983Z,99997.79
2022-12-22T06:32:49.578Z,100011.41
2022-12-22T06:35:22.213Z,100001.84
2022-12-22T06:37:55.137Z,100007.39
2022-12-22T06:40:27.981Z,100010.25
2022-12-22T06:43:10.337Z,100018.67
2022-12-22T06:45:44.641Z,100017.70
2022-12-22T06:48:17.256Z,100029.20
2022-12-22T06:50:50.060Z,100024.81
2022-12-22T06:53:22.610Z,100022.88
2022-12-22T06:55:55.045Z,100023.47
2022-12-22T06:58:27.561Z,100024.39
2022-12-22T07:01:00.195Z,100023.75
2022-12-22T07:03:35.188Z,100021.34
2022-12-22T07:06:08.599Z,100009.29
2022-12-22T07:08:42.480Z,100014.00
2022-12-22T07:11:15.503Z,100014.09
2022-12-22T07:13:49.392Z,100013.13
2022-12-22T07:16:22.575Z,100015.80
2022-12-22T07:18:55.327Z,100008.16
2022-12-22T07:21:28.044Z,100014.96
2022-12-22T07:24:00.772Z,100017.27
2022-12-22T07:26:33.696Z,100019.08
2022-12-22T07:29:06.542Z,100025.59
2022-12-22T07:31:39.533Z,100020.69
2022-12-22T07:34:11.922Z,100008.84
2022-12-22T07:36:44.836Z,100023.48
2022-12-22T07:39:17.990Z,100019.64
2022-12-22T07:42:08.404Z,100023.84
2022-12-22T07:44:42.433Z,100032.77
2022-12-22T07:47:15.546Z,100046.27
2022-12-22T07:50:05.780Z,100035.89
2022-12-22T07:52:38.592Z,100031.02
2022-12-22T07:55:11.531Z,100028.00
2022-12-22T07:57:44.229Z,100031.58
2022-12-22T08:00:17.898Z,100023.16
2022-12-22T08:02:58.007Z,100027.55
2022-12-22T08:05:30.888Z,100035.15
2022-12-22T08:08:03.378Z,100029.93
2022-12-22T08:10:36.389Z,100026.42
2022-12-22T08:13:17.540Z,100031.38
2022-12-22T08:15:52.697Z,100027.12
2022-12-22T08:18:25.875Z,100023.11
2022-12-22T08:20:59.044Z,100011.52
2022-12-22T08:23:31.658Z,100006.16
2022-12-22T08:26:21.559Z,100006.13
2022-12-22T08:29:37.532Z,100007.63
2022-12-22T08:32:10.989Z,99996.83
2022-12-22T08:34:43.551Z,100001.75
2022-12-22T08:37:17.221Z,99996.67
2022-12-22T08:39:53.629Z,99983.42
2022-12-22T08:42:26.122Z,99975.41
2022-12-22T08:44:59.042Z,99976.64
2022-12-22T08:47:31.727Z,99966.35
2022-12-22T08:50:05.014Z,99963.14
2022-12-22T08:52:38.030Z,99972.09
2022-12-22T08:55:11.158Z,99969.98
2022-12-22T08:57:43.988Z,99965.17
2022-12-22T09:00:17.876Z,99969.48
2022-12-22T09:02:50.442Z,99981.28
2022-12-22T09:05:23.379Z,99984.91
2022-12-22T09:07:56.331Z,99981.70
2022-12-22T09:10:28.886Z,99979.11
2022-12-22T09:13:01.691Z,99975.81
2022-12-22T09:15:34.485Z,99975.23
2022-12-22T09:18:07.109Z,99974.52
2022-12-22T09:20:39.652Z,99980.14
2022-12-22T09:23:12.417Z,99987.27
2022-12-22T09:25:45.075Z,99975.85
2022-12-22T09:28:17.899Z,99979.24
2022-12-22T09:30:55.042Z,99977.17
2022-12-22T09:33:27.935Z,99974.62
2022-12-22T09:36:00.864Z,99964.34
2022-12-22T09:38:35.903Z,99970.76
2022-12-22T09:41:35.045Z,99968.44
2022-12-22T09:44:14.188Z,99975.31
2022-12-22T09:46:46.842Z,99981.22
2022-12-22T09:49:19.935Z,99973.56
2022-12-22T09:51:57.325Z,99975.65
2022-12-22T09:54:30.307Z,99976.05
2022-12-22T09:57:02.718Z,99974.97
2022-12-22T09:59:35.289Z,99966.50
2022-12-22T10:02:37.910Z,99984.13
2022-12-22T10:05:41.311Z,99983.21
2022-12-22T10:08:22.760Z,99983.41
2022-12-22T10:10:56.232Z,99967.30
2022-12-22T10:13:28.643Z,99966.05
2022-12-22T10:16:01.351Z,99973.64
2022-12-22T10:18:35.570Z,99974.83
2022-12-22T10:21:13.228Z,99976.84
2022-12-22T10:23:47.831Z,99973.69
2022-12-22T10:26:30.831Z,99973.22
2022-12-22T10:29:14.624Z,99970.02
2022-12-22T10:32:08.339Z,99976.94
2022-12-22T10:35:02.746Z,99961.34
2022-12-22T10:37:38.893Z,99960.22
2022-12-22T10:40:20.554Z,99953.95
2022-12-22T10:42:55.994Z,99950.28
2022-12-22T10:45:28.941Z,99941.70
2022-12-22T10:48:01.416Z,99936.64
2022-12-22T10:50:35.371Z,99937.72
2022-12-22T10:53:08.058Z,99935.34
2022-12-22T10:55:40.525Z,99926.98
2022-12-22T10:58:21.942Z,99935.77
2022-12-22T11:01:06.283Z,99943.16
2022-12-22T11:03:39.204Z,99937.05
2022-12-22T11:06:13.974Z,99938.20
2022-12-22T11:08:51.618Z,99934.41
2022-12-22T11:11:38.687Z,99926.16
2022-12-22T11:14:21.495Z,99919.08
2022-12-22T11:17:08.284Z,99909.20
2022-12-22T11:20:14.993Z,99916.34
2022-12-22T11:23:23.806Z,99920.88
2022-12-22T11:26:20.390Z,99913.86
2022-12-22T11:29:23.879Z,99915.36
2022-12-22T11:32:24.850Z,99921.34
2022-12-22T11:35:53.671Z,99921.92
2022-12-22T11:38:52.692Z,99912.20
2022-12-22T11:42:00.798Z,99920.62
2022-12-22T11:45:02.326Z,99924.45
2022-12-22T11:47:58.087Z,99915.15
2022-12-22T11:51:01.472Z,99916.28
2022-12-22T11:53:47.055Z,99921.08
2022-12-22T11:56:43.382Z,99920.93
2022-12-22T11:59:33.346Z,99930.44
2022-12-22T12:02:34.071Z,99921.19
2022-12-22T12:05:18.974Z,99927.13
2022-12-22T12:08:26.584Z,99923.35
2022-12-22T12:11:16.169Z,99917.87
2022-12-22T12:14:05.546Z,99923.51
2022-12-22T12:17:16.807Z,99925.04
2022-12-22T12:20:24.562Z,99927.02
2022-12-22T12:23:41.148Z,99930.46
2022-12-22T12:26:33.350Z,99930.25
2022-12-22T12:29:20.181Z,99937.92
2022-12-22T12:32:12.830Z,99933.16
2022-12-22T12:34:48.905Z,99934.50
2022-12-22T12:37:34.274Z,99932.86
2022-12-22T12:40:32.672Z,99935.08
2022-12-22T12:43:08.534Z,99937.66
2022-12-22T12:45:42.972Z,99937.55
2022-12-22T12:48:30.239Z,99938.90
2022-12-22T12:51:03.795Z,99930.36
2022-12-22T12:53:36.415Z,99935.62
2022-12-22T12:56:10.688Z,99932.54
2022-12-22T12:58:48.508Z,99926.80
2022-12-22T13:01:32.144Z,99934.66
2022-12-22T13:04:06.185Z,99931.59
2022-12-22T13:06:54.757Z,99927.05
2022-12-22T13:12:45.863Z,99915.72
2022-12-22T13:15:39.240Z,99918.31
2022-12-22T13:18:31.909Z,99906.42
2022-12-22T13:24:28.510Z,99911.44
2022-12-22T13:26:55.393Z,99906.64
2022-12-22T13:30:11.138Z,99911.75
2022-12-22T13:32:38.904Z,99909.53
2022-12-22T13:35:46.622Z,99919.81
2022-12-22T13:38:37.855Z,99905.40
2022-12-22T13:41:26.590Z,99902.81
2022-12-22T13:43:59.665Z,99905.40
2022-12-22T13:46:36.294Z,99902.23
2022-12-22T13:49:11.838Z,99912.99
2022-12-22T13:51:47.572Z,99920.55
2022-12-22T13:54:31.293Z,99920.19
2022-12-22T13:57:06.659Z,99922.98
2022-12-22T13:59:40.999Z,99914.55
2022-12-22T14:02:17.293Z,99909.75
2022-12-22T14:05:11.308Z,99921.01
2022-12-22T14:08:03.827Z,99924.17
2022-12-22T14:10:51.069Z,99919.88
2022-12-22T14:13:30.301Z,99920.56
2022-12-22T14:16:05.721Z,99920.77
2022-12-22T14:18:39.133Z,99922.11
2022-12-22T14:21:11.960Z,99927.34
2022-12-22T14:23:49.082Z,99930.44
2022-12-22T14:26:25.337Z,99917.11
2022-12-22T14:28:59.061Z,99916.84
2022-12-22T14:31:31.685Z,99931.47
2022-12-22T14:34:05.674Z,99932.15
2022-12-22T14:36:41.044Z,99928.69
2022-12-22T14:39:16.718Z,99928.80
2022-12-22T14:41:55.909Z,99928.80
2022-12-22T14:44:46.610Z,99933.33
2022-12-22T14:47:22.721Z,99927.45
2022-12-22T14:50:26.248Z,99920.16
2022-12-22T14:53:03.384Z,99917.58
2022-12-22T14:55:43.182Z,99916.55
2022-12-22T14:58:21.378Z,99913.39
2022-12-22T15:01:23.600Z,99920.68
2022-12-22T15:04:04.438Z,99928.11
2022-12-22T15:06:41.638Z,99921.39
2022-12-22T15:09:47.125Z,99916.02
2022-12-22T15:11:59.775Z,99922.33
2022-12-22T15:14:38.662Z,99925.89
2022-12-22T15:17:33.944Z,99936.91
2022-12-22T15:20:11.305Z,99930.69
2022-12-22T15:22:45.118Z,99937.88
2022-12-22T15:25:24.742Z,99928.00
2022-12-22T15:27:57.632Z,99916.96
2022-12-22T15:30:30.571Z,99906.42
2022-12-22T15:33:03.351Z,99910.08
2022-12-22T15:35:36.790Z,99906.56
2022-12-22T15:38:39.216Z,99906.27
2022-12-22T15:41:32.780Z,99911.11
2022-12-22T15:44:18.316Z,99913.12
2022-12-22T15:46:56.061Z,99910.17
2022-12-22T15:49:30.301Z,99899.64
2022-12-22T15:52:03.873Z,99896.08
2022-12-22T15:54:37.797Z,99900.00
2022-12-22T15:57:14.346Z,99897.22
2022-12-22T15:59:48.631Z,99899.96
2022-12-22T16:02:21.394Z,99910.80
2022-12-22T16:04:54.330Z,99904.34
2022-12-22T16:07:27.257Z,99903.63
2022-12-22T16:09:59.900Z,99906.52
2022-12-22T16:12:35.125Z,99909.94
2022-12-22T16:15:11.632Z,99915.97
2022-12-22T16:17:44.527Z,99909.73
2022-12-22T16:20:17.114Z,99915.87
2022-12-22T16:22:51.769Z,99910.86
2022-12-22T16:25:49.799Z,99912.57
2022-12-22T16:28:31.741Z,99917.84
2022-12-22T16:31:07.743Z,99921.19
2022-12-22T16:33:40.684Z,99910.60
2022-12-22T16:36:13.199Z,99915.30
2022-12-22T16:38:50.557Z,99902.59
2022-12-22T16:41:28.814Z,99909.20
2022-12-22T16:50:02.039Z,99907.86
2022-12-22T16:52:40.481Z,99921.70
2022-12-22T16:55:22.408Z,99932.92
2022-12-22T16:57:56.319Z,99925.84
2022-12-22T17:00:31.511Z,99924.70
2022-12-22T17:03:22.487Z,99915.77
2022-12-22T17:06:24.239Z,99921.41
2022-12-22T17:08:59.256Z,99923.52
2022-12-22T17:11:35.432Z,99935.61
2022-12-22T17:14:25.676Z,99929.47
2022-12-22T17:16:59.904Z,99930.80
2022-12-22T17:19:33.055Z,99933.89
2022-12-22T17:22:07.167Z,99933.13
2022-12-22T17:24:40.347Z,99929.20
2022-12-22T17:27:15.955Z,99922.59
2022-12-22T17:29:48.821Z,99906.36
2022-12-22T17:32:22.655Z,99906.73
2022-12-22T17:34:55.659Z,99906.05
2022-12-22T17:37:28.775Z,99902.17
2022-12-22T17:40:02.813Z,99905.02
2022-12-22T17:42:35.445Z,99903.09
2022-12-22T17:45:11.815Z,99902.72
2022-12-22T17:47:44.753Z,99904.59
2022-12-22T17:50:19.517Z,99903.14
2022-12-22T17:52:52.293Z,99909.75
2022-12-22T17:56:06.504Z,99906.23
2022-12-22T17:58:03.882Z,99905.25
2022-12-22T18:00:36.650Z,99894.23
2022-12-22T18:03:11.676Z,99896.92
2022-12-22T18:05:48.450Z,99890.94
2022-12-22T18:08:21.694Z,99893.63
2022-12-22T18:10:54.175Z,99898.42
2022-12-22T18:13:27.237Z,99901.00
2022-12-22T18:15:59.677Z,99904.42
2022-12-22T18:18:32.548Z,99901.16
2022-12-22T18:21:06.422Z,99903.37
2022-12-22T18:23:43.235Z,99901.63
2022-12-22T18:26:31.395Z,99894.54
2022-12-22T18:29:04.342Z,99893.20
2022-12-22T18:31:37.324Z,99894.91
2022-12-22T18:34:09.762Z,99895.30
2022-12-22T18:36:44.176Z,99887.45
2022-12-22T18:39:22.595Z,99890.51
2022-12-22T18:41:56.348Z,99896.36
2022-12-22T18:44:29.045Z,99897.44
2022-12-22T18:47:01.978Z,99907.17
2022-12-22T18:49:35.134Z,99904.28
2022-12-22T18:52:22.145Z,99902.44
2022-12-22T18:54:55.062Z,99911.53
2022-12-22T18:57:27.830Z,99909.09
2022-12-22T19:00:01.622Z,99905.79
2022-12-22T19:02:34.798Z,99899.12
2022-12-22T19:05:38.073Z,99895.41
2022-12-22T19:08:23.547Z,99890.91
2022-12-22T19:11:16.244Z,99897.22
2022-12-22T19:13:51.429Z,99901.75
2022-12-22T19:16:36.070Z,99902.85
2022-12-22T19:19:20.109Z,99903.73
2022-12-22T19:21:54.769Z,99897.88
2022-12-22T19:24:28.908Z,99896.91
2022-12-22T19:27:02.004Z,99891.64
2022-12-22T19:29:36.014Z,99885.19
2022-12-22T19:32:14.522Z,99886.16
2022-12-22T19:34:49.622Z,99887.34
2022-12-22T19:37:22.604Z,99882.34
2022-12-22T19:39:56.291Z,99891.17
2022-12-22T19:42:29.138Z,99877.34
2022-12-22T19:45:08.412Z,99876.97
2022-12-22T19:47:37.557Z,99872.89
2022-12-22T19:50:20.407Z,99874.54
2022-12-22T19:52:53.669Z,99875.52
2022-12-22T19:55:26.545Z,99875.15
2022-12-22T19:57:58.919Z,99876.86
2022-12-22T20:00:32.146Z,99881.41
2022-12-22T20:03:06.434Z,99882.95
2022-12-22T20:05:39.251Z,99883.69
2022-12-22T20:08:12.388Z,99870.37
2022-12-22T20:10:45.394Z,99876.05
2022-12-22T20:13:21.713Z,99878.94
2022-12-22T20:15:54.832Z,99873.41
2022-12-22T20:18:30.639Z,99866.33
2022-12-22T20:21:28.336Z,99867.19
2022-12-22T20:24:01.990Z,99860.80
2022-12-22T20:26:35.102Z,99866.67
2022-12-22T20:29:07.627Z,99857.58
2022-12-22T20:31:40.240Z,99863.25
2022-12-22T20:34:12.627Z,99867.12
2022-12-22T20:36:45.420Z,99867.62
2022-12-22T20:39:20.112Z,99867.09
2022-12-22T20:41:53.799Z,99863.93
2022-12-22T20:44:28.243Z,99866.72
2022-12-22T20:47:00.833Z,99858.66
2022-12-22T20:49:34.344Z,99861.81
2022-12-22T20:52:07.560Z,99861.08
2022-12-22T20:54:39.990Z,99862.62
2022-12-22T20:57:15.117Z,99851.12
2022-12-22T20:59:55.752Z,99847.97
2022-12-22T21:02:28.161Z,99845.48
2022-12-22T21:05:01.643Z,99841.19
2022-12-22T21:07:34.182Z,99850.78
2022-12-22T21:10:07.576Z,99851.75
2022-12-22T21:12:40.788Z,99845.31
2022-12-22T21:15:22.986Z,99846.25
2022-12-22T21:17:58.415Z,99845.78
2022-12-22T21:20:31.818Z,99843.30
2022-12-22T21:23:04.285Z,99836.03
2022-12-22T21:25:39.676Z,99840.62
2022-12-22T21:28:10.932Z,99844.91
2022-12-22T21:30:43.646Z,99842.03
2022-12-22T21:33:16.043Z,99837.44
2022-12-22T21:35:48.787Z,99842.40
2022-12-22T21:38:23.302Z,99839.02
2022-12-22T21:40:55.807Z,99832.81
2022-12-22T21:43:28.315Z,99834.42
2022-12-22T21:46:01.455Z,99833.75
2022-12-22T21:48:35.003Z,99827.11
2022-12-22T21:51:07.315Z,99828.14
2022-12-22T21:53:39.731Z,99821.13
2022-12-22T21:56:19.700Z,99818.55
2022-12-22T21:58:52.442Z,99826.80
2022-12-22T22:01:26.677Z,99827.27
2022-12-22T22:03:59.976Z,99829.08
2022-12-22T22:06:32.880Z,99819.32
2022-12-22T22:09:07.419Z,99815.70
2022-12-22T22:11:41.765Z,99811.88
2022-12-22T22:14:14.234Z,99817.25
2022-12-22T22:16:47.641Z,99809.70
2022-12-22T22:19:20.204Z,99811.41
2022-12-22T22:21:52.782Z,99800.69
2022-12-22T22:24:25.197Z,99805.38
2022-12-22T22:26:58.128Z,99806.28
2022-12-22T22:29:30.698Z,99820.27
2022-12-22T22:32:03.344Z,99815.88
2022-12-22T22:34:35.884Z,99809.64
2022-12-22T22:37:09.069Z,99811.39
2022-12-22T22:39:41.430Z,99800.25
2022-12-22T22:42:13.891Z,99790.30
2022-12-22T22:44:46.662Z,99799.27
2022-12-22T22:47:19.381Z,99793.52
2022-12-22T22:49:51.993Z,99794.75
2022-12-22T22:52:24.404Z,99780.77
2022-12-22T22:54:57.153Z,99791.03
2022-12-22T22:57:30.138Z,99789.69
2022-12-22T23:00:02.714Z,99795.83
2022-12-22T23:02:35.777Z,99794.31
2022-12-22T23:05:08.787Z,99787.61
2022-12-22T23:07:41.886Z,99784.36
2022-12-22T23:10:14.935Z,99782.78
2022-12-22T23:12:47.384Z,99779.52
2022-12-22T23:15:19.980Z,99777.81
2022-12-22T23:17:53.709Z,99770.23
2022-12-22T23:20:26.400Z,99763.63
2022-12-22T23:22:58.803Z,99764.23
2022-12-22T23:25:31.365Z,99764.41
2022-12-22T23:28:03.963Z,99764.61
2022-12-22T23:30:41.476Z,99762.03
2022-12-22T23:33:14.312Z,99757.34
2022-12-22T23:35:49.342Z,99756.97
2022-12-22T23:38:22.551Z,99755.42
2022-12-22T23:40:59.608Z,99755.59
2022-12-22T23:43:32.116Z,99751.45
2022-12-22T23:46:28.677Z,99756.98
2022-12-22T23:49:01.624Z,99752.39
2022-12-22T23:51:34.620Z,99740.63
2022-12-22T23:54:07.455Z,99741.09
2022-12-22T23:56:39.900Z,99738.66
2022-12-22T23:59:12.345Z,99733.49
